Time;durP1;ratioP1;P1;durP2;ratioP2;P2;SDS_P1;SDS_P2;PMS_P1;PMS_P2;Temp;Humidity;BMP_temperature;BMP_pressure;BME280_temperature;BME280_humidity;BME280_pressure;Samples;Min_cycle;Max_cycle;Signal;HPM_P1;HPM_P2
2023/06/04 00:02:16;;;;;;;1.27;0.70;;;13.00;74.40;;;;;;4916132;29;20525;-67
2023/06/04 00:04:42;;;;;;;2.47;0.63;;;13.10;73.90;;;;;;4932132;29;20099;-67
2023/06/04 00:07:07;;;;;;;3.65;1.00;;;13.10;74.80;;;;;;4930657;29;20028;-66
2023/06/04 00:09:33;;;;;;;6.65;0.95;;;13.10;74.10;;;;;;4929054;29;20450;-66
2023/06/04 00:11:59;;;;;;;3.92;1.23;;;13.10;73.90;;;;;;4933033;29;20024;-66
2023/06/04 00:14:25;;;;;;;4.97;1.63;;;13.00;74.10;;;;;;4919882;29;20036;-67
2023/06/04 00:16:50;;;;;;;1.55;0.68;;;13.10;74.10;;;;;;4922199;29;20515;-66
2023/06/04 00:19:16;;;;;;;2.33;0.98;;;13.00;74.20;;;;;;4918323;29;20028;-66
2023/06/04 00:21:41;;;;;;;0.98;0.55;;;13.00;73.90;;;;;;4922586;29;20112;-66
2023/06/04 00:24:07;;;;;;;0.57;0.57;;;13.00;74.30;;;;;;4924667;29;20031;-66
2023/06/04 00:26:33;;;;;;;2.35;0.70;;;13.00;74.20;;;;;;4922182;29;20034;-67
2023/06/04 00:28:59;;;;;;;0.45;0.40;;;12.90;74.70;;;;;;4917811;29;20362;-67
2023/06/04 00:31:24;;;;;;;1.55;0.90;;;12.90;74.90;;;;;;4919384;29;20030;-67
2023/06/04 00:33:50;;;;;;;2.30;1.00;;;12.80;75.20;;;;;;4922415;29;20036;-66
2023/06/04 00:36:16;;;;;;;1.38;0.70;;;12.80;75.20;;;;;;4917876;29;20066;-67
2023/06/04 00:38:41;;;;;;;1.50;0.63;;;12.70;75.50;;;;;;4923491;29;20034;-66
2023/06/04 00:41:07;;;;;;;2.10;0.82;;;12.70;75.60;;;;;;4923053;29;20032;-67
2023/06/04 00:43:33;;;;;;;1.98;0.88;;;12.60;75.80;;;;;;4917837;29;20035;-66
2023/06/04 00:45:59;;;;;;;1.08;0.70;;;12.60;76.00;;;;;;4917314;29;20028;-66
2023/06/04 00:48:28;;;;;;;3.00;1.05;;;12.60;75.70;;;;;;4914982;29;20066;-69
2023/06/04 00:50:54;;;;;;;2.15;0.63;;;12.60;75.70;;;;;;4919217;29;20115;-66
2023/06/04 00:53:22;;;;;;;2.25;1.13;;;12.60;75.50;;;;;;4921464;29;20052;-67
2023/06/04 00:55:48;;;;;;;3.67;0.63;;;12.60;75.90;;;;;;4920870;29;20051;-66
2023/06/04 00:58:15;;;;;;;5.43;1.30;;;12.60;75.50;;;;;;4926664;29;20474;-67
2023/06/04 01:00:42;;;;;;;1.33;0.70;;;12.70;75.20;;;;;;4899660;29;20028;-66
2023/06/04 01:03:16;;;;;;;2.17;0.90;;;12.70;75.00;;;;;;4915757;29;20659;-66
2023/06/04 01:05:42;;;;;;;;;;;12.70;75.00;;;;;;4920613;29;20050;-66
2023/06/04 01:08:09;;;;;;;1.13;0.70;;;12.80;74.80;;;;;;4916877;29;19919;-66
2023/06/04 01:10:35;;;;;;;2.22;0.75;;;12.80;74.50;;;;;;4909893;29;20138;-67
2023/06/04 01:13:01;;;;;;;4.40;0.85;;;12.80;74.90;;;;;;4931172;29;20032;-67
2023/06/04 01:15:27;;;;;;;3.72;1.05;;;12.80;75.30;;;;;;4917057;29;20047;-66
2023/06/04 01:18:02;;;;;;;1.77;0.70;;;12.70;75.80;;;;;;4928794;29;20055;-66
2023/06/04 01:20:44;;;;;;;1.50;0.93;;;12.60;76.80;;;;;;4930112;29;20562;-67
2023/06/04 01:24:00;;;;;;;1.38;0.60;;;12.40;77.80;;;;;;4927220;29;20044;-66
2023/06/04 01:26:28;;;;;;;1.52;0.88;;;12.30;77.30;;;;;;4917286;29;20422;-66
2023/06/04 01:28:55;;;;;;;5.03;0.65;;;12.20;78.90;;;;;;4930645;29;20042;-66
2023/06/04 01:31:22;;;;;;;1.52;0.80;;;12.10;79.20;;;;;;4930463;29;20056;-67
2023/06/04 01:34:00;;;;;;;1.75;0.80;;;12.10;78.90;;;;;;4926243;29;20552;-66
2023/06/04 01:36:26;;;;;;;2.13;1.20;;;12.00;79.80;;;;;;4931025;29;20471;-66
2023/06/04 01:38:51;;;;;;;1.60;0.80;;;11.90;80.00;;;;;;4926540;29;20042;-66
2023/06/04 01:41:17;;;;;;;2.53;0.90;;;11.80;80.60;;;;;;4927632;29;20162;-67
2023/06/04 01:43:43;;;;;;;1.33;0.73;;;11.80;81.00;;;;;;4928382;29;20034;-66
2023/06/04 01:46:09;;;;;;;1.60;0.93;;;11.70;81.40;;;;;;4927687;29;20122;-67
2023/06/04 01:48:34;;;;;;;1.33;0.68;;;11.60;81.50;;;;;;4928616;29;20032;-66
2023/06/04 01:51:00;;;;;;;1.45;0.88;;;11.60;81.80;;;;;;4930767;29;20439;-66
2023/06/04 01:53:26;;;;;;;2.42;1.00;;;11.50;81.60;;;;;;4930815;29;20024;-66
2023/06/04 01:55:52;;;;;;;4.47;1.10;;;11.50;80.70;;;;;;4930051;29;20560;-67
2023/06/04 01:58:22;;;;;;;1.05;0.73;;;11.60;80.60;;;;;;4930715;29;20494;-67
2023/06/04 02:00:49;;;;;;;1.23;0.77;;;11.60;80.20;;;;;;4927129;29;20042;-66
2023/06/04 02:03:15;;;;;;;3.42;0.73;;;11.60;80.80;;;;;;4931305;29;20035;-67
2023/06/04 02:05:41;;;;;;;2.88;1.10;;;11.60;81.60;;;;;;4927791;29;20402;-66
2023/06/04 02:08:06;;;;;;;1.10;0.60;;;11.50;81.50;;;;;;4926392;29;20055;-66
2023/06/04 02:10:32;;;;;;;1.20;0.70;;;11.50;81.20;;;;;;4929201;29;20043;-67
2023/06/04 02:12:59;;;;;;;0.98;0.70;;;11.50;81.30;;;;;;4931131;29;20441;-67
2023/06/04 02:15:26;;;;;;;3.28;1.08;;;11.50;81.40;;;;;;4918094;29;20051;-65
2023/06/04 02:17:58;;;;;;;2.78;0.68;;;11.50;81.60;;;;;;4932883;29;20027;-67
2023/06/04 02:20:27;;;;;;;5.38;0.60;;;11.50;82.20;;;;;;4932822;29;20031;-67
2023/06/04 02:22:57;;;;;;;4.97;1.27;;;11.40;82.90;;;;;;4932534;29;20375;-66
2023/06/04 02:25:23;;;;;;;2.75;1.10;;;11.30;83.60;;;;;;4932441;29;20091;-67
2023/06/04 02:27:49;;;;;;;1.20;0.70;;;11.20;83.20;;;;;;4932623;29;20039;-66
2023/06/04 02:30:16;;;;;;;1.73;0.80;;;11.20;83.90;;;;;;4933940;29;20023;-66
2023/06/04 02:32:44;;;;;;;1.30;0.77;;;11.10;84.50;;;;;;4935475;29;20027;-66
2023/06/04 02:35:10;;;;;;;1.77;0.90;;;11.10;84.80;;;;;;4933961;29;20031;-65
2023/06/04 02:37:36;;;;;;;1.42;0.68;;;11.00;85.40;;;;;;4933507;29;20015;-66
2023/06/04 02:40:02;;;;;;;2.35;1.08;;;10.90;85.50;;;;;;4933244;29;20028;-66
2023/06/04 02:42:28;;;;;;;1.48;0.63;;;10.90;86.10;;;;;;4934810;29;20016;-67
2023/06/04 02:44:53;;;;;;;1.58;0.52;;;10.80;86.60;;;;;;4933869;29;20039;-67
2023/06/04 02:47:19;;;;;;;6.80;1.20;;;10.70;87.20;;;;;;4934125;29;20450;-68
2023/06/04 02:49:46;;;;;;;1.10;0.40;;;10.60;87.40;;;;;;4934158;29;20024;-67
2023/06/04 02:52:12;;;;;;;1.67;0.90;;;10.60;87.70;;;;;;4933518;29;20138;-67
2023/06/04 02:54:38;;;;;;;1.42;0.70;;;10.50;88.10;;;;;;4933885;29;20150;-66
2023/06/04 02:57:04;;;;;;;1.70;1.00;;;10.50;88.00;;;;;;4931068;29;20028;-66
2023/06/04 02:59:30;;;;;;;1.77;0.90;;;10.50;88.10;;;;;;4931614;29;20034;-66
2023/06/04 03:01:55;;;;;;;2.78;0.90;;;10.50;88.30;;;;;;4927740;29;20057;-66
2023/06/04 03:04:21;;;;;;;1.15;0.90;;;10.50;88.50;;;;;;4933880;29;20110;-66
2023/06/04 03:06:47;;;;;;;1.65;0.75;;;10.40;88.70;;;;;;4932952;29;20063;-66
2023/06/04 03:09:13;;;;;;;1.20;0.82;;;10.40;89.00;;;;;;4933707;29;20040;-67
2023/06/04 03:11:38;;;;;;;2.42;0.70;;;10.40;89.20;;;;;;4933733;29;20047;-65
2023/06/04 03:14:04;;;;;;;3.88;1.17;;;10.40;88.80;;;;;;4920063;29;20554;-66
2023/06/04 03:16:30;;;;;;;3.30;0.75;;;10.40;88.20;;;;;;4932788;29;20024;-67
2023/06/04 03:18:56;;;;;;;0.90;0.52;;;10.50;88.00;;;;;;4933263;29;20055;-66
2023/06/04 03:21:22;;;;;;;3.10;0.63;;;10.50;87.70;;;;;;4933475;29;20482;-67
2023/06/04 03:23:47;;;;;;;2.35;0.65;;;10.60;87.30;;;;;;4931766;29;20038;-66
2023/06/04 03:26:13;;;;;;;2.75;0.70;;;10.60;87.70;;;;;;4933434;29;20036;-67
2023/06/04 03:28:40;;;;;;;2.13;0.88;;;10.60;88.40;;;;;;4932169;29;20051;-66
2023/06/04 03:31:05;;;;;;;1.13;0.57;;;10.50;90.00;;;;;;4931845;29;20024;-66
2023/06/04 03:33:31;;;;;;;1.40;0.75;;;10.50;90.40;;;;;;4933346;29;20389;-66
2023/06/04 03:35:59;;;;;;;2.67;0.90;;;10.30;90.30;;;;;;4931474;29;20640;-67
2023/06/04 03:38:28;;;;;;;2.72;0.80;;;10.30;90.20;;;;;;4933195;29;20474;-66
2023/06/04 03:40:54;;;;;;;2.17;0.75;;;10.30;90.30;;;;;;4935483;29;20042;-65
2023/06/04 03:43:20;;;;;;;2.85;1.02;;;10.30;90.50;;;;;;4932406;29;20102;-66
2023/06/04 03:45:46;;;;;;;1.75;1.00;;;10.30;90.30;;;;;;4931866;29;20023;-66
2023/06/04 03:48:11;;;;;;;2.10;0.90;;;10.30;90.40;;;;;;4931886;29;20048;-66
2023/06/04 03:50:37;;;;;;;1.30;0.70;;;10.30;90.40;;;;;;4932612;29;20059;-66
2023/06/04 03:53:05;;;;;;;1.05;0.65;;;10.40;90.30;;;;;;4933234;29;20024;-67
2023/06/04 03:55:34;;;;;;;1.33;0.80;;;10.40;90.60;;;;;;4929922;29;20066;-65
2023/06/04 03:57:59;;;;;;;0.93;0.60;;;10.40;90.50;;;;;;4931513;29;20028;-66
2023/06/04 04:00:26;;;;;;;1.95;0.82;;;10.40;90.70;;;;;;4931714;29;20458;-66
2023/06/04 04:02:51;;;;;;;1.45;0.82;;;10.40;90.30;;;;;;4932600;29;20038;-66
2023/06/04 04:05:17;;;;;;;2.35;1.08;;;10.50;90.70;;;;;;4929996;29;20043;-66
2023/06/04 04:07:43;;;;;;;2.00;0.95;;;10.50;90.40;;;;;;4932498;29;20034;-66
2023/06/04 04:10:09;;;;;;;5.00;1.00;;;10.60;89.90;;;;;;4933245;29;20020;-66
2023/06/04 04:12:35;;;;;;;1.50;0.90;;;10.70;90.20;;;;;;4932274;29;20107;-66
2023/06/04 04:15:01;;;;;;;3.97;1.58;;;10.70;91.80;;;;;;4921023;29;20119;-68
2023/06/04 04:17:26;;;;;;;6.22;2.35;;;10.60;92.00;;;;;;4931258;29;20127;-66
2023/06/04 04:19:52;;;;;;;7.07;2.58;;;10.60;91.70;;;;;;4931021;29;20032;-67
2023/06/04 04:22:17;;;;;;;6.43;1.90;;;10.60;91.40;;;;;;4930580;29;21235;-66
2023/06/04 04:24:44;;;;;;;3.05;1.35;;;10.60;91.70;;;;;;4931870;29;20032;-66
2023/06/04 04:27:13;;;;;;;2.25;1.20;;;10.70;91.60;;;;;;4931845;29;20032;-66
2023/06/04 04:29:39;;;;;;;5.45;1.33;;;10.70;92.00;;;;;;4917285;29;20379;-66
2023/06/04 04:32:11;;;;;;;3.25;1.23;;;10.90;91.90;;;;;;4932783;29;20027;-66
2023/06/04 04:34:39;;;;;;;3.45;0.95;;;12.00;90.50;;;;;;4931232;29;20042;-67
2023/06/04 04:37:08;;;;;;;5.45;1.05;;;13.70;84.90;;;;;;4926441;29;20020;-66
2023/06/04 04:39:34;;;;;;;4.70;1.45;;;15.40;76.90;;;;;;4929284;29;20481;-67
2023/06/04 04:42:00;;;;;;;2.92;1.05;;;16.80;75.40;;;;;;4931145;29;20561;-67
2023/06/04 04:44:26;;;;;;;1.70;1.02;;;18.20;69.30;;;;;;4931805;29;20115;-67
2023/06/04 04:46:51;;;;;;;2.65;1.27;;;19.00;66.00;;;;;;4930177;29;20063;-67
2023/06/04 04:49:17;;;;;;;1.73;1.10;;;19.70;64.90;;;;;;4930431;29;20041;-67
2023/06/04 04:51:42;;;;;;;2.95;1.00;;;20.30;65.10;;;;;;4930999;29;20486;-67
2023/06/04 04:54:08;;;;;;;1.98;1.42;;;20.60;63.00;;;;;;4931883;29;20086;-67
2023/06/04 04:56:36;;;;;;;1.90;0.80;;;21.70;60.90;;;;;;4928112;29;20031;-68
2023/06/04 04:59:02;;;;;;;2.25;1.30;;;22.40;60.20;;;;;;4931858;29;20502;-67
2023/06/04 05:01:28;;;;;;;5.65;1.38;;;23.00;58.60;;;;;;4931485;29;20079;-67
2023/06/04 05:03:53;;;;;;;3.20;0.90;;;23.20;57.40;;;;;;4931168;29;20039;-67
2023/06/04 05:06:19;;;;;;;3.33;0.80;;;23.50;57.20;;;;;;4930553;29;20035;-67
2023/06/04 05:08:45;;;;;;;2.20;1.13;;;23.40;57.50;;;;;;4930979;29;20085;-67
2023/06/04 05:11:11;;;;;;;2.78;1.25;;;23.80;57.90;;;;;;4930193;29;20039;-67
2023/06/04 05:13:36;;;;;;;2.20;1.15;;;24.00;56.80;;;;;;4929619;29;20049;-67
2023/06/04 05:16:06;;;;;;;6.97;1.02;;;24.20;56.90;;;;;;4916259;29;20499;-67
2023/06/04 05:18:40;;;;;;;1.30;0.98;;;24.40;55.30;;;;;;4926488;29;20034;-67
2023/06/04 05:21:06;;;;;;;1.48;0.88;;;23.90;56.80;;;;;;4925206;29;20388;-67
2023/06/04 05:23:34;;;;;;;2.03;1.20;;;24.20;57.10;;;;;;4923800;29;20036;-66
2023/06/04 05:26:01;;;;;;;2.42;0.98;;;24.70;56.40;;;;;;4923864;29;20063;-67
2023/06/04 05:28:27;;;;;;;2.17;1.10;;;25.40;55.20;;;;;;4923280;29;20032;-67
2023/06/04 05:30:58;;;;;;;2.00;0.80;;;25.90;53.90;;;;;;4927341;29;20367;-67
2023/06/04 05:33:24;;;;;;;2.08;0.95;;;26.40;54.00;;;;;;4927625;29;20079;-67
2023/06/04 05:35:51;;;;;;;1.92;0.90;;;25.90;55.70;;;;;;4923859;29;20103;-67
2023/06/04 05:38:25;;;;;;;5.75;1.23;;;25.70;55.60;;;;;;4924646;29;20102;-67
2023/06/04 05:40:52;;;;;;;3.10;0.90;;;25.90;56.00;;;;;;4906284;29;20619;-67
2023/06/04 05:43:18;;;;;;;3.40;1.23;;;26.00;55.70;;;;;;4924341;29;21435;-68
2023/06/04 05:45:43;;;;;;;6.10;1.15;;;25.70;56.40;;;;;;4923518;29;20031;-68
2023/06/04 05:48:09;;;;;;;1.58;0.90;;;25.90;56.20;;;;;;4924304;29;20039;-67
2023/06/04 05:50:35;;;;;;;2.72;1.23;;;26.10;56.30;;;;;;4922233;29;20118;-67
2023/06/04 05:53:00;;;;;;;3.20;1.08;;;26.80;53.30;;;;;;4923035;29;20047;-68
2023/06/04 05:55:28;;;;;;;2.65;1.02;;;26.80;53.60;;;;;;4921759;29;20063;-67
2023/06/04 05:57:54;;;;;;;1.98;1.15;;;27.10;54.10;;;;;;4924639;29;20101;-67
2023/06/04 06:00:20;;;;;;;1.35;0.90;;;26.60;55.30;;;;;;4925001;29;20020;-68
2023/06/04 06:02:48;;;;;;;3.83;1.05;;;26.80;53.60;;;;;;4925400;29;20028;-67
2023/06/04 06:05:14;;;;;;;2.30;1.30;;;26.90;53.90;;;;;;4924082;29;20028;-68
2023/06/04 06:07:40;;;;;;;6.13;1.23;;;27.00;52.60;;;;;;4930059;29;20078;-67
2023/06/04 06:10:07;;;;;;;8.73;1.65;;;27.00;53.90;;;;;;4931378;29;20027;-68
2023/06/04 06:12:32;;;;;;;3.08;1.20;;;27.50;53.20;;;;;;4928809;29;20028;-68
2023/06/04 06:14:58;;;;;;;3.67;1.42;;;27.30;52.30;;;;;;4920064;29;20032;-68
2023/06/04 06:17:23;;;;;;;8.00;1.65;;;28.40;52.70;;;;;;4929730;29;20054;-68
2023/06/04 06:19:49;;;;;;;3.70;1.35;;;28.80;51.60;;;;;;4929473;29;20026;-68
2023/06/04 06:22:15;;;;;;;2.03;1.25;;;29.00;52.50;;;;;;4928950;29;20059;-68
2023/06/04 06:24:41;;;;;;;4.43;1.38;;;28.70;51.70;;;;;;4929802;29;20028;-65
2023/06/04 06:27:06;;;;;;;3.92;1.23;;;29.10;51.50;;;;;;4927566;29;20456;-65
2023/06/04 06:29:33;;;;;;;5.63;1.33;;;29.80;51.50;;;;;;4931012;29;20036;-67
2023/06/04 06:31:59;;;;;;;2.97;1.98;;;29.80;50.60;;;;;;4928047;29;20486;-68
2023/06/04 06:34:24;;;;;;;1.40;1.10;;;28.80;50.30;;;;;;4931067;29;20087;-68
2023/06/04 06:36:50;;;;;;;3.13;1.25;;;28.80;51.30;;;;;;4920389;29;20633;-65
2023/06/04 06:39:16;;;;;;;2.03;1.20;;;29.70;50.90;;;;;;4922125;29;20039;-65
2023/06/04 06:41:42;;;;;;;2.92;1.02;;;30.30;50.40;;;;;;4921980;29;20115;-64
2023/06/04 06:44:08;;;;;;;2.65;1.20;;;30.50;49.60;;;;;;4924217;29;20024;-65
2023/06/04 06:46:33;;;;;;;2.45;1.42;;;30.80;50.60;;;;;;4924254;29;20090;-68
2023/06/04 06:48:59;;;;;;;1.52;1.23;;;30.20;49.70;;;;;;4923753;29;20032;-66
2023/06/04 06:51:25;;;;;;;1.60;1.20;;;30.90;49.70;;;;;;4923862;29;20186;-66
2023/06/04 06:53:50;;;;;;;6.45;1.35;;;31.50;48.70;;;;;;4921294;29;20036;-65
2023/06/04 06:56:18;;;;;;;2.63;1.42;;;30.50;50.60;;;;;;4920410;29;20024;-65
2023/06/04 06:58:45;;;;;;;3.55;1.48;;;30.60;49.50;;;;;;4923485;29;20058;-65
2023/06/04 07:01:10;;;;;;;3.17;1.08;;;29.60;50.50;;;;;;4924218;29;20050;-66
2023/06/04 07:03:38;;;;;;;1.25;1.08;;;30.10;49.90;;;;;;4925746;29;20024;-66
2023/06/04 07:06:03;;;;;;;1.77;1.30;;;30.50;50.70;;;;;;4922995;29;20030;-66
2023/06/04 07:08:29;;;;;;;5.60;1.23;;;30.70;50.00;;;;;;4931926;29;20402;-66
2023/06/04 07:10:55;;;;;;;7.30;1.40;;;30.70;49.00;;;;;;4933161;29;20034;-65
2023/06/04 07:13:20;;;;;;;2.13;1.25;;;32.30;49.20;;;;;;4933452;29;20170;-67
2023/06/04 07:15:46;;;;;;;2.42;1.38;;;32.20;49.00;;;;;;4921972;29;20097;-66
2023/06/04 07:18:12;;;;;;;1.67;1.23;;;32.10;49.20;;;;;;4930960;29;20075;-66
2023/06/04 07:20:37;;;;;;;1.20;1.00;;;32.30;47.20;;;;;;4932561;29;20044;-66
2023/06/04 07:23:03;;;;;;;8.35;1.08;;;31.60;49.00;;;;;;4932497;29;20035;-66
2023/06/04 07:25:29;;;;;;;3.00;1.30;;;32.20;47.00;;;;;;4916298;29;20429;-66
2023/06/04 07:27:57;;;;;;;1.63;1.20;;;32.20;47.70;;;;;;4933062;29;20031;-67
2023/06/04 07:30:26;;;;;;;1.98;1.20;;;33.30;45.60;;;;;;4935027;29;20107;-65
2023/06/04 07:32:52;;;;;;;2.72;1.20;;;32.30;46.30;;;;;;4934328;29;20028;-65
2023/06/04 07:35:17;;;;;;;1.90;1.20;;;33.30;47.00;;;;;;4932134;29;20054;-65
2023/06/04 07:37:48;;;;;;;7.22;1.15;;;32.90;46.20;;;;;;4929397;29;20023;-65
2023/06/04 07:40:14;;;;;;;3.08;1.35;;;32.90;46.40;;;;;;4925941;29;20051;-66
2023/06/04 07:42:42;;;;;;;4.30;1.17;;;33.20;46.20;;;;;;4931517;29;20024;-66
2023/06/04 07:45:08;;;;;;;1.55;0.95;;;33.50;44.00;;;;;;4930803;29;20028;-66
2023/06/04 07:47:36;;;;;;;3.53;1.33;;;33.90;44.50;;;;;;4928106;29;20028;-65
2023/06/04 07:50:02;;;;;;;2.20;1.10;;;33.60;43.90;;;;;;4929264;29;20406;-66
2023/06/04 07:52:28;;;;;;;2.03;1.30;;;33.40;44.40;;;;;;4929774;29;20047;-66
2023/06/04 07:54:53;;;;;;;6.82;1.17;;;32.90;46.20;;;;;;4927936;29;20034;-66
2023/06/04 07:57:19;;;;;;;1.67;0.82;;;33.20;46.60;;;;;;4930821;29;20027;-66
2023/06/04 07:59:44;;;;;;;1.60;1.17;;;32.70;44.50;;;;;;4930423;29;20028;-66
2023/06/04 08:02:10;;;;;;;2.75;1.08;;;32.70;45.20;;;;;;4927096;29;20087;-66
2023/06/04 08:04:36;;;;;;;5.80;1.20;;;32.90;45.60;;;;;;4929921;29;20059;-67
2023/06/04 08:07:02;;;;;;;2.38;1.25;;;33.50;45.70;;;;;;4928300;29;20055;-67
2023/06/04 08:09:27;;;;;;;2.40;1.38;;;33.10;42.90;;;;;;4929008;29;20675;-67
2023/06/04 08:11:53;;;;;;;3.72;1.20;;;32.90;42.70;;;;;;4929342;29;20039;-67
2023/06/04 08:14:21;;;;;;;3.35;1.23;;;33.30;41.90;;;;;;4932150;29;20203;-66
2023/06/04 08:16:47;;;;;;;3.28;1.08;;;33.20;42.70;;;;;;4917408;29;20044;-66
2023/06/04 08:19:13;;;;;;;6.97;1.00;;;32.90;42.80;;;;;;4930250;29;20405;-66
2023/06/04 08:21:40;;;;;;;4.10;1.23;;;32.70;40.90;;;;;;4930949;29;20648;-66
2023/06/04 08:24:08;;;;;;;1.20;0.82;;;32.50;43.40;;;;;;4927849;29;20042;-66
2023/06/04 08:26:33;;;;;;;1.92;0.90;;;32.10;42.10;;;;;;4931561;29;20035;-67
2023/06/04 08:29:03;;;;;;;3.58;1.40;;;32.40;42.50;;;;;;4930821;29;20095;-66
2023/06/04 08:31:29;;;;;;;11.55;2.17;;;31.80;43.60;;;;;;4929868;29;20390;-66
2023/06/04 08:33:55;;;;;;;4.57;1.20;;;31.90;43.20;;;;;;4930751;29;20032;-65
2023/06/04 08:36:20;;;;;;;4.15;1.10;;;32.20;41.50;;;;;;4929545;29;20031;-67
2023/06/04 08:38:50;;;;;;;3.50;0.90;;;32.50;42.50;;;;;;4926382;29;20036;-67
2023/06/04 08:41:23;;;;;;;2.08;1.00;;;31.50;42.50;;;;;;4928779;29;20382;-66
2023/06/04 08:43:50;;;;;;;3.28;1.75;;;32.10;42.60;;;;;;4928068;29;20035;-66
2023/06/04 08:46:19;;;;;;;2.20;1.20;;;32.60;42.40;;;;;;4928758;29;20038;-67
2023/06/04 08:48:45;;;;;;;5.30;1.17;;;32.00;42.60;;;;;;4931280;29;20036;-67
2023/06/04 08:51:11;;;;;;;2.30;1.15;;;31.50;42.20;;;;;;4931690;29;20051;-66
2023/06/04 08:53:37;;;;;;;5.25;1.23;;;31.80;42.10;;;;;;4923996;29;20036;-66
2023/06/04 08:56:03;;;;;;;1.85;1.33;;;32.70;43.10;;;;;;4930284;29;20028;-67
2023/06/04 08:58:33;;;;;;;2.83;1.20;;;32.60;41.90;;;;;;4931117;29;20512;-66
2023/06/04 09:01:00;;;;;;;3.00;1.30;;;32.40;42.30;;;;;;4926006;29;20401;-67
2023/06/04 09:03:26;;;;;;;4.20;1.10;;;32.10;43.20;;;;;;4927354;29;20134;-66
2023/06/04 09:05:53;;;;;;;1.83;1.10;;;31.90;42.70;;;;;;4928883;29;20027;-66
2023/06/04 09:08:21;;;;;;;5.47;1.10;;;32.70;43.20;;;;;;4928342;29;20586;-67
2023/06/04 09:10:51;;;;;;;11.15;1.10;;;32.70;42.20;;;;;;4929193;29;20040;-66
2023/06/04 09:13:18;;;;;;;2.05;1.10;;;32.70;41.20;;;;;;4929824;29;20028;-66
2023/06/04 09:15:44;;;;;;;5.10;0.93;;;32.70;41.00;;;;;;4917782;29;20048;-66
2023/06/04 09:18:12;;;;;;;2.55;1.02;;;33.00;41.80;;;;;;4931255;29;20141;-67
2023/06/04 09:20:38;;;;;;;2.88;1.15;;;32.40;41.50;;;;;;4930615;29;20044;-66
2023/06/04 09:23:13;;;;;;;4.15;1.13;;;32.40;41.30;;;;;;4928158;29;20035;-67
2023/06/04 09:25:43;;;;;;;2.42;0.93;;;33.30;42.90;;;;;;4929361;29;20028;-66
2023/06/04 09:28:09;;;;;;;3.85;1.33;;;33.30;40.60;;;;;;4928976;29;20019;-66
2023/06/04 09:30:35;;;;;;;1.10;0.90;;;32.70;42.10;;;;;;4922903;29;20478;-66
2023/06/04 09:33:07;;;;;;;3.40;1.00;;;33.10;41.80;;;;;;4927456;29;20051;-66
2023/06/04 09:35:33;;;;;;;1.23;1.08;;;33.10;41.40;;;;;;4925621;29;20125;-66
2023/06/04 09:37:59;;;;;;;3.15;1.10;;;32.40;40.00;;;;;;4923197;29;20036;-66
2023/06/04 09:40:24;;;;;;;1.73;1.15;;;31.50;42.10;;;;;;4929869;29;20039;-67
2023/06/04 09:42:54;;;;;;;3.83;1.30;;;31.80;42.50;;;;;;4930936;29;20028;-66
2023/06/04 09:45:49;;;;;;;3.40;0.95;;;31.70;40.90;;;;;;4924397;29;20839;-66
2023/06/04 09:48:21;;;;;;;2.47;1.50;;;31.90;41.00;;;;;;4926081;29;20148;-66
2023/06/04 09:50:48;;;;;;;1.63;0.90;;;32.00;41.00;;;;;;4931329;29;20027;-66
2023/06/04 09:53:23;;;;;;;3.40;1.20;;;31.00;42.50;;;;;;4930173;29;20042;-66
2023/06/04 09:55:59;;;;;;;1.65;1.13;;;31.10;43.90;;;;;;4927534;29;20107;-67
2023/06/04 09:58:28;;;;;;;2.78;0.88;;;31.10;41.20;;;;;;4930690;29;20493;-67
2023/06/04 10:00:58;;;;;;;1.67;0.95;;;31.20;41.80;;;;;;4927722;29;20059;-66
2023/06/04 10:03:27;;;;;;;2.05;1.10;;;31.20;42.10;;;;;;4912006;29;20038;-67
2023/06/04 10:05:55;;;;;;;3.42;0.93;;;31.50;41.70;;;;;;4929146;29;20027;-66
2023/06/04 10:08:23;;;;;;;2.03;1.40;;;30.80;41.60;;;;;;4926817;29;20509;-66
2023/06/04 10:10:52;;;;;;;3.45;1.40;;;30.30;42.20;;;;;;4929984;29;20036;-67
2023/06/04 10:13:18;;;;;;;2.42;1.30;;;29.80;42.30;;;;;;4931661;29;20039;-66
2023/06/04 10:15:46;;;;;;;3.83;1.10;;;29.20;43.60;;;;;;4917460;29;20058;-66
2023/06/04 10:18:13;;;;;;;2.80;1.08;;;29.00;42.00;;;;;;4927672;29;20031;-66
2023/06/04 10:20:40;;;;;;;6.03;1.20;;;28.80;41.50;;;;;;4932370;29;20046;-66
2023/06/04 10:23:07;;;;;;;4.00;1.02;;;28.40;43.00;;;;;;4929782;29;20051;-68
2023/06/04 10:25:35;;;;;;;1.55;1.10;;;28.10;43.20;;;;;;4925950;29;20040;-65
2023/06/04 10:28:01;;;;;;;2.22;1.27;;;27.60;42.40;;;;;;4922016;29;20027;-67
2023/06/04 10:30:27;;;;;;;1.75;1.10;;;26.80;44.00;;;;;;4920602;29;20036;-67
2023/06/04 10:32:53;;;;;;;4.07;1.70;;;26.70;44.80;;;;;;4919264;29;20681;-66
2023/06/04 10:35:30;;;;;;;2.05;1.15;;;26.50;44.10;;;;;;4922755;29;20509;-66
2023/06/04 10:38:10;;;;;;;2.88;1.40;;;26.70;44.00;;;;;;4926453;29;20045;-67
2023/06/04 10:40:36;;;;;;;3.67;1.30;;;26.60;45.50;;;;;;4932998;29;20508;-67
2023/06/04 10:43:13;;;;;;;1.85;1.08;;;26.60;43.60;;;;;;4934415;29;20039;-67
2023/06/04 10:45:39;;;;;;;3.72;1.77;;;26.70;42.00;;;;;;4933531;29;20020;-67
2023/06/04 10:48:07;;;;;;;4.18;1.15;;;26.50;42.00;;;;;;4928302;29;20039;-67
2023/06/04 10:50:34;;;;;;;3.90;1.52;;;26.30;43.70;;;;;;4934388;29;20379;-66
2023/06/04 10:53:02;;;;;;;5.40;1.70;;;26.00;42.20;;;;;;4932519;29;20389;-66
2023/06/04 10:55:29;;;;;;;4.90;2.17;;;25.80;42.70;;;;;;4932045;29;20055;-67
2023/06/04 10:57:57;;;;;;;4.47;1.58;;;26.10;43.60;;;;;;4931291;29;20216;-66
2023/06/04 11:00:34;;;;;;;3.58;1.40;;;26.10;43.80;;;;;;4930274;29;20094;-67
2023/06/04 11:03:00;;;;;;;3.83;1.30;;;26.30;44.70;;;;;;4933600;29;20663;-66
2023/06/04 11:05:40;;;;;;;3.88;1.42;;;26.50;44.70;;;;;;4931783;29;20032;-66
2023/06/04 11:08:06;;;;;;;4.65;1.35;;;26.30;44.60;;;;;;4930645;29;20031;-66
2023/06/04 11:10:37;;;;;;;8.02;1.63;;;26.20;42.00;;;;;;4931589;29;20028;-67
2023/06/04 11:13:03;;;;;;;1.92;1.38;;;26.00;43.20;;;;;;4915545;29;20032;-67
2023/06/04 11:15:43;;;;;;;1.95;1.40;;;25.90;45.30;;;;;;4929007;29;20032;-66
2023/06/04 11:18:13;;;;;;;2.88;1.10;;;25.90;43.80;;;;;;4921584;28;20051;-66
2023/06/04 11:20:39;;;;;;;2.10;1.55;;;25.90;45.30;;;;;;4928065;29;20036;-67
2023/06/04 11:23:05;;;;;;;2.17;1.30;;;25.80;43.90;;;;;;4932307;29;20030;-66
2023/06/04 11:25:32;;;;;;;3.53;1.40;;;25.90;44.90;;;;;;4931717;29;20107;-66
2023/06/04 11:27:59;;;;;;;1.77;1.40;;;26.00;45.40;;;;;;4928726;29;20016;-67
2023/06/04 11:30:25;;;;;;;4.15;1.38;;;25.90;44.50;;;;;;4931217;29;20052;-67
2023/06/04 11:33:03;;;;;;;5.07;1.50;;;25.90;43.40;;;;;;4933914;29;20027;-67
2023/06/04 11:35:29;;;;;;;2.15;1.50;;;25.60;43.40;;;;;;4930889;29;20408;-67
2023/06/04 11:37:56;;;;;;;2.10;1.42;;;25.50;43.90;;;;;;4929497;29;20020;-67
2023/06/04 11:40:22;;;;;;;1.50;1.17;;;25.60;44.40;;;;;;4927101;29;20102;-67
2023/06/04 11:42:49;;;;;;;4.72;1.50;;;25.50;44.50;;;;;;4930385;29;20124;-66
2023/06/04 11:45:17;;;;;;;2.17;1.48;;;25.40;43.80;;;;;;4924618;29;20024;-65
2023/06/04 11:47:53;;;;;;;1.80;1.58;;;25.40;43.60;;;;;;4929870;29;20127;-66
2023/06/04 11:50:20;;;;;;;2.45;1.45;;;25.30;44.00;;;;;;4931592;29;20453;-66
2023/06/04 11:52:48;;;;;;;3.03;1.25;;;25.20;46.30;;;;;;4930957;29;20481;-66
2023/06/04 11:55:14;;;;;;;1.75;1.40;;;25.40;48.70;;;;;;4929880;29;20039;-65
2023/06/04 11:57:40;;;;;;;2.67;1.35;;;25.40;44.50;;;;;;4927678;29;20480;-65
2023/06/04 12:00:10;;;;;;;4.03;1.27;;;25.40;44.40;;;;;;4923907;29;20565;-67
2023/06/04 12:02:56;;;;;;;2.35;1.40;;;25.40;44.70;;;;;;4923231;29;20037;-66
2023/06/04 12:05:28;;;;;;;2.67;1.42;;;25.40;45.80;;;;;;4922634;29;20535;-66
2023/06/04 12:08:09;;;;;;;2.10;1.20;;;25.30;44.60;;;;;;4923710;29;20032;-66
2023/06/04 12:10:43;;;;;;;2.38;1.48;;;25.20;44.40;;;;;;4931036;29;20557;-66
2023/06/04 12:13:09;;;;;;;4.78;1.20;;;25.20;45.80;;;;;;4928476;29;20483;-66
2023/06/04 12:15:35;;;;;;;3.83;1.63;;;25.30;45.60;;;;;;4926749;29;20024;-65
2023/06/04 12:18:04;;;;;;;2.53;1.58;;;25.30;45.10;;;;;;4918031;29;20437;-66
2023/06/04 12:20:35;;;;;;;3.35;1.55;;;25.10;49.30;;;;;;4927871;29;20012;-66
2023/06/04 12:23:00;;;;;;;1.42;1.08;;;25.10;46.30;;;;;;4931746;29;20026;-66
2023/06/04 12:25:27;;;;;;;3.70;1.73;;;25.30;46.90;;;;;;4930055;29;20023;-66
2023/06/04 12:27:53;;;;;;;3.03;1.52;;;25.20;45.40;;;;;;4932332;29;20047;-66
2023/06/04 12:30:19;;;;;;;1.85;1.30;;;25.20;45.90;;;;;;4929103;29;20406;-65
2023/06/04 12:32:45;;;;;;;4.35;1.45;;;25.00;46.50;;;;;;4930219;29;20051;-65
2023/06/04 12:35:11;;;;;;;3.05;1.42;;;25.00;47.50;;;;;;4928302;29;20027;-66
2023/06/04 12:37:36;;;;;;;1.77;1.10;;;24.70;46.20;;;;;;4931634;29;20087;-65
2023/06/04 12:40:04;;;;;;;3.55;1.40;;;24.70;47.10;;;;;;4930956;29;20055;-67
2023/06/04 12:42:30;;;;;;;3.88;1.02;;;24.90;48.00;;;;;;4931257;29;20110;-67
2023/06/04 12:44:56;;;;;;;2.20;1.55;;;25.10;48.00;;;;;;4931175;29;20419;-67
2023/06/04 12:47:21;;;;;;;2.28;1.52;;;25.00;45.30;;;;;;4930293;29;20054;-67
2023/06/04 12:49:47;;;;;;;2.55;1.58;;;24.80;46.80;;;;;;4929961;29;20035;-68